Time;durP1;ratioP1;P1;durP2;ratioP2;P2;SDS_P1;SDS_P2;PMS_P1;PMS_P2;Temp;Humidity;BMP_temperature;BMP_pressure;BME280_temperature;BME280_humidity;BME280_pressure;Samples;Min_cycle;Max_cycle;Signal;HPM_P1;HPM_P2
2023/08/10 00:00:18;;;;;;;13.95;4.03;;;24.00;75.10;;;;;;6188579;23;20036;-74
2023/08/10 00:02:44;;;;;;;16.83;4.10;;;24.00;75.00;;;;;;6216426;23;20027;-73
2023/08/10 00:05:10;;;;;;;10.82;4.50;;;24.00;75.10;;;;;;6190607;23;20017;-74
2023/08/10 00:07:37;;;;;;;11.30;4.10;;;23.90;75.20;;;;;;6216804;23;20001;-74
2023/08/10 00:10:04;;;;;;;12.52;3.75;;;23.90;75.50;;;;;;6216903;23;20017;-75
2023/08/10 00:12:30;;;;;;;10.98;3.75;;;23.90;75.50;;;;;;6216738;23;20020;-74
2023/08/10 00:14:56;;;;;;;10.07;3.65;;;23.90;75.70;;;;;;6216476;23;20438;-74
2023/08/10 00:17:24;;;;;;;12.68;3.50;;;23.90;75.80;;;;;;6216840;23;20094;-74
2023/08/10 00:19:50;;;;;;;12.40;3.85;;;23.80;75.90;;;;;;6190118;23;20008;-74
2023/08/10 00:22:16;;;;;;;9.82;3.85;;;23.80;76.10;;;;;;6214932;23;20001;-74
2023/08/10 00:24:42;;;;;;;12.30;4.18;;;23.80;76.30;;;;;;6214547;23;20001;-76
2023/08/10 00:27:08;;;;;;;9.93;3.83;;;23.70;76.20;;;;;;6216642;23;20076;-74
2023/08/10 00:29:34;;;;;;;12.38;4.22;;;23.70;76.30;;;;;;6216487;23;20357;-73
2023/08/10 00:32:00;;;;;;;13.50;3.83;;;23.80;76.30;;;;;;6190303;23;20087;-75
2023/08/10 00:34:26;;;;;;;14.80;4.00;;;23.80;75.90;;;;;;6190162;23;20008;-73
2023/08/10 00:36:52;;;;;;;7.38;3.60;;;23.80;76.10;;;;;;6216399;23;20008;-74
2023/08/10 00:39:18;;;;;;;13.80;3.85;;;23.80;76.30;;;;;;6216796;23;20001;-73
2023/08/10 00:41:44;;;;;;;11.70;4.22;;;23.70;76.30;;;;;;6216950;23;20000;-74
2023/08/10 00:44:10;;;;;;;13.52;4.85;;;23.70;76.30;;;;;;6217200;23;20011;-74
2023/08/10 00:46:36;;;;;;;14.30;4.22;;;23.70;76.20;;;;;;6190206;23;20009;-73
2023/08/10 00:49:04;;;;;;;14.30;3.88;;;23.60;76.30;;;;;;6216686;23;20004;-73
2023/08/10 00:51:30;;;;;;;11.43;4.28;;;23.50;76.30;;;;;;6217313;23;20040;-74
2023/08/10 00:53:57;;;;;;;12.10;4.13;;;23.50;76.60;;;;;;6216941;23;20031;-74
2023/08/10 00:56:23;;;;;;;10.13;3.97;;;23.50;76.80;;;;;;6216118;23;20005;-74
2023/08/10 00:58:51;;;;;;;13.23;3.92;;;23.40;76.80;;;;;;6215897;23;20050;-74
2023/08/10 01:01:17;;;;;;;13.70;3.65;;;23.40;76.90;;;;;;6189622;23;20005;-73
2023/08/10 01:03:43;;;;;;;9.07;3.75;;;23.40;77.10;;;;;;6216424;23;20095;-74
2023/08/10 01:06:24;;;;;;;12.98;4.15;;;23.40;77.30;;;;;;6216607;23;20035;-74
2023/08/10 01:09:06;;;;;;;9.68;3.88;;;23.40;77.30;;;;;;6215904;23;20445;-74
2023/08/10 01:11:50;;;;;;;14.18;3.90;;;23.40;77.30;;;;;;6215332;23;20060;-73
2023/08/10 01:14:32;;;;;;;9.48;3.15;;;23.40;76.80;;;;;;6216376;23;20071;-73
2023/08/10 01:17:00;;;;;;;7.75;3.60;;;23.40;76.60;;;;;;6216327;23;20003;-74
2023/08/10 01:19:38;;;;;;;10.25;3.40;;;23.40;76.50;;;;;;6189257;23;20012;-73
2023/08/10 01:22:47;;;;;;;9.73;3.70;;;23.40;76.30;;;;;;6216368;23;19997;-74
2023/08/10 01:25:15;;;;;;;10.00;3.20;;;23.40;77.00;;;;;;6204559;23;20011;-74
2023/08/10 01:27:41;;;;;;;10.85;3.70;;;23.40;76.30;;;;;;6189490;23;20040;-74
2023/08/10 01:30:08;;;;;;;8.70;3.20;;;23.40;76.40;;;;;;6216022;23;20016;-74
2023/08/10 01:32:34;;;;;;;8.18;3.10;;;23.40;76.20;;;;;;6189401;23;20055;-74
2023/08/10 01:35:00;;;;;;;9.60;3.42;;;23.30;76.70;;;;;;6216024;23;20008;-75
2023/08/10 01:37:27;;;;;;;7.70;3.45;;;23.30;75.90;;;;;;6216057;23;20008;-74
2023/08/10 01:39:53;;;;;;;9.75;3.15;;;23.30;75.60;;;;;;6216193;23;20423;-73
2023/08/10 01:42:19;;;;;;;7.30;3.00;;;23.20;75.50;;;;;;6216277;23;19997;-74
2023/08/10 01:44:48;;;;;;;6.75;3.15;;;23.10;75.30;;;;;;6189650;23;20331;-73
2023/08/10 01:47:36;;;;;;;10.43;3.72;;;23.00;75.20;;;;;;6189259;23;20319;-73
2023/08/10 01:50:06;;;;;;;10.52;3.45;;;22.90;75.70;;;;;;6217237;23;20016;-74
2023/08/10 01:52:37;;;;;;;6.45;2.83;;;22.90;75.10;;;;;;6216670;23;20422;-73
2023/08/10 01:55:05;;;;;;;9.63;3.38;;;22.80;75.00;;;;;;6216141;23;20123;-74
2023/08/10 01:57:31;;;;;;;8.05;3.20;;;22.80;75.00;;;;;;6215936;23;20032;-74
2023/08/10 01:59:57;;;;;;;9.52;3.33;;;22.90;74.90;;;;;;6189319;23;20008;-74
2023/08/10 02:02:23;;;;;;;9.02;2.88;;;22.90;74.60;;;;;;6215646;23;20367;-75
2023/08/10 02:04:50;;;;;;;8.30;2.67;;;22.90;74.40;;;;;;6188988;23;20032;-74
2023/08/10 02:07:16;;;;;;;9.30;2.95;;;22.90;74.20;;;;;;6215627;23;19997;-74
2023/08/10 02:09:42;;;;;;;7.25;2.80;;;22.90;74.10;;;;;;6215889;23;20027;-73
2023/08/10 02:12:08;;;;;;;9.27;3.00;;;22.90;74.00;;;;;;6188946;23;20012;-74
2023/08/10 02:14:34;;;;;;;9.27;3.30;;;22.90;73.90;;;;;;6189285;23;20012;-75
2023/08/10 02:17:00;;;;;;;10.38;3.00;;;22.80;73.70;;;;;;6214492;23;20040;-75
2023/08/10 02:19:26;;;;;;;11.20;3.03;;;22.80;73.90;;;;;;6215907;23;19999;-74
2023/08/10 02:21:52;;;;;;;10.52;2.95;;;22.70;73.60;;;;;;6215885;23;20004;-74
2023/08/10 02:24:18;;;;;;;8.60;2.80;;;22.70;73.60;;;;;;6215346;23;20007;-74
2023/08/10 02:26:44;;;;;;;8.13;2.90;;;22.60;73.40;;;;;;6215690;23;20390;-74
2023/08/10 02:29:09;;;;;;;7.40;3.08;;;22.60;73.30;;;;;;6218336;23;20000;-74
2023/08/10 02:31:36;;;;;;;6.28;3.15;;;22.60;73.40;;;;;;6232729;23;20009;-74
2023/08/10 02:34:03;;;;;;;10.85;3.08;;;22.50;73.30;;;;;;6221135;23;20020;-75
2023/08/10 02:36:29;;;;;;;8.10;2.67;;;22.40;73.60;;;;;;6215647;23;20009;-74
2023/08/10 02:38:55;;;;;;;15.30;3.28;;;22.40;73.60;;;;;;6215608;23;20004;-74
2023/08/10 02:41:21;;;;;;;10.95;2.95;;;22.30;74.00;;;;;;6189396;23;20328;-73
2023/08/10 02:43:47;;;;;;;8.27;3.50;;;22.40;74.00;;;;;;6215660;23;20004;-74
2023/08/10 02:46:12;;;;;;;7.00;2.97;;;22.40;74.10;;;;;;6215325;23;20000;-75
2023/08/10 02:48:38;;;;;;;11.18;3.50;;;22.40;74.30;;;;;;6215982;23;20423;-75
2023/08/10 02:51:04;;;;;;;10.90;3.78;;;22.50;74.40;;;;;;6217946;23;20004;-74
2023/08/10 02:53:30;;;;;;;11.60;4.03;;;22.50;74.10;;;;;;6215731;23;20431;-74
2023/08/10 02:55:56;;;;;;;13.90;3.42;;;22.60;74.00;;;;;;6188820;23;20016;-74
2023/08/10 02:58:22;;;;;;;11.50;3.33;;;22.60;73.90;;;;;;6215954;23;20004;-74
2023/08/10 03:00:48;;;;;;;8.05;3.40;;;22.60;74.50;;;;;;6188665;23;20459;-73
2023/08/10 03:03:14;;;;;;;9.98;3.78;;;22.60;75.20;;;;;;6188621;23;20016;-73
2023/08/10 03:05:40;;;;;;;8.48;3.30;;;22.60;74.70;;;;;;6215476;23;20076;-72
2023/08/10 03:08:06;;;;;;;15.00;4.10;;;22.60;74.90;;;;;;6215150;23;20078;-74
2023/08/10 03:10:32;;;;;;;11.32;3.63;;;22.60;75.00;;;;;;6215289;23;20013;-74
2023/08/10 03:12:58;;;;;;;11.10;3.47;;;22.50;75.20;;;;;;6215173;23;20427;-74
2023/08/10 03:15:24;;;;;;;10.02;4.07;;;22.50;75.40;;;;;;6215332;23;20330;-74
2023/08/10 03:17:50;;;;;;;8.88;3.60;;;22.40;75.20;;;;;;6215307;23;20005;-74
2023/08/10 03:20:19;;;;;;;9.70;3.67;;;22.40;75.30;;;;;;6215037;23;20004;-74
2023/08/10 03:22:45;;;;;;;11.23;3.47;;;22.40;75.40;;;;;;6214872;23;20659;-73
2023/08/10 03:25:11;;;;;;;8.27;3.55;;;22.40;74.80;;;;;;6188530;23;20008;-75
2023/08/10 03:27:37;;;;;;;9.57;3.72;;;22.40;74.90;;;;;;6215211;23;20001;-75
2023/08/10 03:30:04;;;;;;;10.88;3.28;;;22.40;75.00;;;;;;6214673;23;20346;-74
2023/08/10 03:32:30;;;;;;;7.63;3.05;;;22.40;74.90;;;;;;6214550;23;20070;-74
2023/08/10 03:34:56;;;;;;;8.85;3.40;;;22.40;74.50;;;;;;6214662;23;20430;-74
2023/08/10 03:37:22;;;;;;;9.82;3.45;;;22.40;74.40;;;;;;6215042;23;20001;-74
2023/08/10 03:39:48;;;;;;;11.13;4.00;;;22.30;74.50;;;;;;6214818;23;20005;-74
2023/08/10 03:42:13;;;;;;;7.28;3.10;;;22.30;74.40;;;;;;6214621;23;20076;-74
2023/08/10 03:44:39;;;;;;;8.48;3.35;;;22.20;74.30;;;;;;6188093;23;20005;-74
2023/08/10 03:47:05;;;;;;;8.80;3.60;;;22.20;74.20;;;;;;6188304;23;20071;-75
2023/08/10 03:49:31;;;;;;;8.85;3.28;;;22.20;74.30;;;;;;6189054;23;20347;-74
2023/08/10 03:51:57;;;;;;;11.85;3.17;;;22.10;74.20;;;;;;6215600;23;20000;-74
2023/08/10 03:54:23;;;;;;;9.45;3.10;;;22.20;74.50;;;;;;6214799;23;20004;-74
2023/08/10 03:56:49;;;;;;;13.43;3.45;;;22.20;74.00;;;;;;6214744;23;20027;-73
2023/08/10 03:59:15;;;;;;;12.35;3.83;;;22.30;74.10;;;;;;6215032;23;20074;-74
2023/08/10 04:01:41;;;;;;;12.35;3.67;;;22.30;73.90;;;;;;6214846;23;20004;-74
2023/08/10 04:04:08;;;;;;;9.10;3.42;;;22.30;74.00;;;;;;6214681;23;20017;-73
2023/08/10 04:06:34;;;;;;;11.10;3.60;;;22.20;73.90;;;;;;6214463;23;20307;-74
2023/08/10 04:08:59;;;;;;;9.95;3.47;;;22.30;73.90;;;;;;6214884;23;20052;-74
2023/08/10 04:11:25;;;;;;;9.38;3.35;;;22.30;73.50;;;;;;6188196;23;20048;-74
2023/08/10 04:13:51;;;;;;;7.47;3.40;;;22.30;73.40;;;;;;6214461;23;20072;-74
2023/08/10 04:16:17;;;;;;;8.57;3.38;;;22.30;73.50;;;;;;6188090;23;20448;-74
2023/08/10 04:18:43;;;;;;;7.63;3.75;;;22.30;73.50;;;;;;6214644;23;20011;-75
2023/08/10 04:21:09;;;;;;;13.00;3.63;;;22.30;73.50;;;;;;6214825;23;20422;-75
2023/08/10 04:23:35;;;;;;;9.73;3.72;;;22.20;73.60;;;;;;6188151;23;20007;-74
2023/08/10 04:26:01;;;;;;;7.50;3.08;;;22.10;73.60;;;;;;6214684;23;20004;-74
2023/08/10 04:28:26;;;;;;;8.15;3.38;;;22.10;73.70;;;;;;6214273;23;20511;-73
2023/08/10 04:30:52;;;;;;;8.35;3.25;;;22.10;73.70;;;;;;6214429;23;20438;-74
2023/08/10 04:33:18;;;;;;;7.45;3.40;;;22.00;74.20;;;;;;6214804;23;20001;-73
2023/08/10 04:35:44;;;;;;;7.10;3.33;;;22.00;74.00;;;;;;6214827;23;20000;-74
2023/08/10 04:38:10;;;;;;;9.98;3.40;;;21.90;74.60;;;;;;6220963;23;20003;-75
2023/08/10 04:40:36;;;;;;;10.75;3.35;;;21.90;74.80;;;;;;6228410;23;20051;-73
2023/08/10 04:43:03;;;;;;;14.45;4.32;;;21.90;74.90;;;;;;6188494;23;20557;-74
2023/08/10 04:45:29;;;;;;;7.32;2.92;;;22.00;75.00;;;;;;6188076;23;20339;-75
2023/08/10 04:47:55;;;;;;;11.25;3.88;;;22.00;74.70;;;;;;6216453;23;19997;-74
2023/08/10 04:50:21;;;;;;;9.85;3.83;;;22.00;74.70;;;;;;6218117;23;20067;-74
2023/08/10 04:52:47;;;;;;;11.02;3.92;;;22.10;74.30;;;;;;6217261;23;20001;-74
2023/08/10 04:55:13;;;;;;;8.85;3.78;;;22.10;74.10;;;;;;6216409;23;20004;-74
2023/08/10 04:57:39;;;;;;;7.70;3.17;;;22.10;74.10;;;;;;6216216;23;20008;-74
2023/08/10 05:00:09;;;;;;;11.10;3.40;;;22.10;74.00;;;;;;6216662;23;20032;-75
2023/08/10 05:02:36;;;;;;;10.05;3.78;;;22.10;74.30;;;;;;6216289;23;20072;-74
2023/08/10 05:05:03;;;;;;;8.25;3.60;;;22.10;74.10;;;;;;6189276;23;20048;-73
2023/08/10 05:07:29;;;;;;;9.65;3.58;;;22.10;74.20;;;;;;6216462;23;20001;-74
2023/08/10 05:09:55;;;;;;;10.40;3.72;;;22.10;74.20;;;;;;6216934;23;20017;-73
2023/08/10 05:12:21;;;;;;;9.45;3.35;;;22.10;74.00;;;;;;6217006;23;20407;-73
2023/08/10 05:14:47;;;;;;;6.88;3.10;;;22.10;74.10;;;;;;6216629;23;20386;-72
2023/08/10 05:17:13;;;;;;;8.05;3.65;;;22.10;74.20;;;;;;6217113;23;20411;-74
2023/08/10 05:19:38;;;;;;;10.02;3.47;;;22.20;74.10;;;;;;6216670;23;20005;-74
2023/08/10 05:22:04;;;;;;;11.70;3.60;;;22.30;74.20;;;;;;6216664;23;20003;-74
2023/08/10 05:24:32;;;;;;;8.25;3.05;;;22.30;74.10;;;;;;6216289;23;20000;-74
2023/08/10 05:27:00;;;;;;;7.85;3.25;;;22.50;74.00;;;;;;6189562;23;20013;-74
2023/08/10 05:29:26;;;;;;;8.32;3.30;;;22.50;73.50;;;;;;6216106;23;20366;-73
2023/08/10 05:31:52;;;;;;;12.40;3.22;;;22.70;73.50;;;;;;6189598;23;20023;-73
2023/08/10 05:34:18;;;;;;;11.45;4.00;;;22.90;73.20;;;;;;6189632;23;20008;-74
2023/08/10 05:36:44;;;;;;;8.65;3.17;;;23.10;72.50;;;;;;6216135;23;20410;-74
2023/08/10 05:39:10;;;;;;;8.40;3.35;;;23.40;71.70;;;;;;6216386;23;20012;-73
2023/08/10 05:41:35;;;;;;;9.35;3.17;;;23.60;71.40;;;;;;6216040;23;20008;-73
2023/08/10 05:44:01;;;;;;;7.53;3.25;;;23.80;70.90;;;;;;6216304;23;19996;-75
2023/08/10 05:46:27;;;;;;;10.98;3.28;;;23.90;70.20;;;;;;6216204;23;20047;-75
2023/08/10 05:48:53;;;;;;;7.95;3.35;;;24.10;70.00;;;;;;6216280;23;20398;-73
2023/08/10 05:51:19;;;;;;;10.32;3.40;;;24.30;69.60;;;;;;6217634;23;20036;-71
2023/08/10 05:53:45;;;;;;;6.50;3.40;;;24.60;69.00;;;;;;6216155;23;20485;-74
2023/08/10 05:56:10;;;;;;;9.52;3.63;;;24.70;68.80;;;;;;6215782;23;20445;-73
2023/08/10 05:58:36;;;;;;;6.78;3.28;;;24.90;68.40;;;;;;6188611;23;20000;-74
2023/08/10 06:01:03;;;;;;;9.75;3.30;;;25.00;67.90;;;;;;6216164;23;20427;-74
2023/08/10 16:11:58;;;;;;;7.40;2.70;;;30.50;50.40;;;;;;6196790;23;20103;-72
2023/08/10 16:14:24;;;;;;;7.95;2.40;;;30.50;50.60;;;;;;6244959;23;20016;-74
2023/08/10 16:16:50;;;;;;;9.75;3.97;;;30.50;52.00;;;;;;6244893;23;20011;-76
2023/08/10 16:19:16;;;;;;;9.55;4.15;;;30.40;52.30;;;;;;6244404;23;20000;-75
2023/08/10 16:21:45;;;;;;;10.30;4.10;;;30.40;53.20;;;;;;6244458;23;20330;-75
2023/08/10 16:24:16;;;;;;;9.38;3.00;;;30.30;52.90;;;;;;6244914;23;19996;-74
2023/08/10 16:26:42;;;;;;;5.68;2.20;;;30.30;52.50;;;;;;6244620;23;20062;-75
2023/08/10 16:29:08;;;;;;;6.80;2.90;;;30.30;52.50;;;;;;6243967;23;20007;-74
2023/08/10 16:31:34;;;;;;;6.63;2.65;;;30.30;52.50;;;;;;6244107;23;20019;-75
2023/08/10 16:34:00;;;;;;;7.30;2.70;;;30.20;52.40;;;;;;6244575;23;20339;-73
2023/08/10 16:36:26;;;;;;;7.18;2.70;;;30.20;52.70;;;;;;6244914;23;20000;-76
2023/08/10 16:38:52;;;;;;;6.93;2.13;;;30.10;52.80;;;;;;6244395;23;20000;-75
2023/08/10 16:41:18;;;;;;;7.53;2.50;;;30.10;52.80;;;;;;6244587;23;20457;-76
2023/08/10 16:43:44;;;;;;;6.90;2.75;;;30.00;52.80;;;;;;6246245;23;19996;-73
2023/08/10 16:46:09;;;;;;;7.93;2.50;;;30.00;52.90;;;;;;6246790;23;20007;-75
2023/08/10 16:48:35;;;;;;;5.32;2.53;;;30.00;53.20;;;;;;6246836;23;20418;-74
2023/08/10 16:51:02;;;;;;;7.22;2.60;;;30.00;53.30;;;;;;6245982;23;20008;-74
2023/08/10 16:53:28;;;;;;;6.18;2.20;;;29.90;53.50;;;;;;6246079;23;20000;-72
2023/08/10 16:55:54;;;;;;;5.78;2.35;;;29.90;53.60;;;;;;6246506;23;20401;-75
2023/08/10 16:58:20;;;;;;;6.30;2.20;;;29.90;53.40;;;;;;6246686;23;20035;-75
2023/08/10 17:00:46;;;;;;;9.27;2.47;;;29.90;54.00;;;;;;6246079;23;20050;-74
2023/08/10 17:03:12;;;;;;;6.53;2.30;;;29.80;53.80;;;;;;6246715;23;20390;-75
2023/08/10 17:05:38;;;;;;;7.90;2.30;;;29.70;53.90;;;;;;6248020;23;20027;-76
2023/08/10 17:08:07;;;;;;;8.57;2.70;;;29.70;53.90;;;;;;6246179;23;19996;-76
2023/08/10 17:10:33;;;;;;;7.43;2.55;;;29.60;54.10;;;;;;6246038;23;20015;-75
2023/08/10 17:12:59;;;;;;;5.65;2.42;;;29.60;53.80;;;;;;6246128;23;20017;-75
2023/08/10 17:15:35;;;;;;;7.47;2.58;;;29.60;54.00;;;;;;6246296;23;20330;-74
2023/08/10 17:18:01;;;;;;;9.63;2.60;;;29.50;54.20;;;;;;6219209;23;20005;-75
2023/08/10 17:20:27;;;;;;;7.93;2.65;;;29.40;54.50;;;;;;6246140;23;20503;-74
2023/08/10 17:22:55;;;;;;;5.93;2.33;;;29.40;54.70;;;;;;6246391;23;20001;-76
2023/08/10 17:25:22;;;;;;;4.95;1.85;;;29.30;54.70;;;;;;6219428;23;20012;-75
2023/08/10 17:27:48;;;;;;;8.75;2.45;;;29.30;54.90;;;;;;6218694;23;20008;-75
2023/08/10 17:30:14;;;;;;;9.10;2.65;;;29.30;54.90;;;;;;6219181;23;20070;-74
2023/08/10 17:32:40;;;;;;;5.90;2.35;;;29.20;54.90;;;;;;6246198;23;20004;-73
2023/08/10 17:35:06;;;;;;;5.38;2.25;;;29.20;55.10;;;;;;6246276;23;19997;-76
2023/08/10 17:37:33;;;;;;;7.45;2.42;;;29.10;55.20;;;;;;6246087;23;20004;-73
2023/08/10 17:40:00;;;;;;;7.45;2.80;;;29.10;55.30;;;;;;6245854;23;19996;-76
2023/08/10 17:42:26;;;;;;;7.10;2.17;;;29.00;55.30;;;;;;6245994;23;20445;-76
2023/08/10 17:44:54;;;;;;;6.72;2.67;;;29.00;55.30;;;;;;6245367;23;20004;-75
2023/08/10 17:47:20;;;;;;;8.80;2.60;;;28.90;55.40;;;;;;6218891;23;20040;-74
2023/08/10 17:49:46;;;;;;;5.47;2.40;;;28.90;55.40;;;;;;6245785;23;20333;-74
2023/08/10 17:52:13;;;;;;;6.75;2.53;;;28.70;55.40;;;;;;6245270;23;20019;-76
2023/08/10 17:54:39;;;;;;;6.13;2.42;;;28.70;55.30;;;;;;6245119;23;20494;-74
2023/08/10 17:57:05;;;;;;;6.18;2.88;;;28.70;55.40;;;;;;6244058;23;20036;-74
2023/08/10 17:59:30;;;;;;;11.13;2.42;;;28.70;55.20;;;;;;6245649;23;19996;-75
2023/08/10 18:01:57;;;;;;;7.43;2.85;;;28.60;55.20;;;;;;6247066;23;20006;-75
2023/08/10 18:04:23;;;;;;;9.27;2.40;;;28.60;55.10;;;;;;6245298;23;20000;-76
2023/08/10 18:06:49;;;;;;;7.35;2.63;;;28.50;55.20;;;;;;6245052;23;20454;-74
2023/08/10 18:09:15;;;;;;;9.50;2.40;;;28.50;55.40;;;;;;6217240;23;20350;-74
2023/08/10 18:11:40;;;;;;;6.80;2.40;;;28.50;55.40;;;;;;6219353;23;20024;-75
2023/08/10 18:14:07;;;;;;;8.13;2.70;;;28.40;55.30;;;;;;6245952;23;20028;-76
2023/08/10 18:16:34;;;;;;;9.38;2.78;;;28.40;55.70;;;;;;6245957;23;20007;-75
2023/08/10 18:19:00;;;;;;;9.43;3.10;;;28.30;55.90;;;;;;6246075;23;20079;-75
2023/08/10 18:21:26;;;;;;;7.03;3.08;;;28.30;56.10;;;;;;6245778;23;20028;-76
2023/08/10 18:23:52;;;;;;;7.22;2.97;;;28.30;56.40;;;;;;6219290;23;20058;-76
2023/08/10 18:26:19;;;;;;;13.15;7.20;;;28.30;56.70;;;;;;6246037;23;20004;-75
2023/08/10 18:28:45;;;;;;;8.85;4.68;;;28.20;57.10;;;;;;6244895;23;20000;-74
2023/08/10 18:31:11;;;;;;;11.85;4.20;;;28.10;57.40;;;;;;6223412;23;20027;-78
2023/08/10 18:33:37;;;;;;;14.35;4.70;;;28.10;57.30;;;;;;6258947;22;20022;-79
2023/08/10 18:36:03;;;;;;;22.05;11.80;;;28.00;57.40;;;;;;6245953;23;20008;-73
2023/08/10 18:38:29;;;;;;;13.15;7.32;;;28.00;58.10;;;;;;6245942;23;19996;-78
2023/08/10 18:40:55;;;;;;;9.57;3.85;;;28.10;58.20;;;;;;6245030;23;20023;-79
2023/08/10 18:43:24;;;;;;;8.85;3.47;;;28.00;57.90;;;;;;6246034;23;20453;-79
2023/08/10 18:45:50;;;;;;;8.68;3.30;;;28.00;58.20;;;;;;6218458;23;20012;-78
2023/08/10 18:48:16;;;;;;;11.90;3.60;;;27.90;58.10;;;;;;6246600;23;20065;-79
2023/08/10 18:50:42;;;;;;;10.05;3.83;;;27.90;58.30;;;;;;6250606;23;20023;-79
2023/08/10 18:53:08;;;;;;;9.02;4.55;;;27.80;58.50;;;;;;6247133;23;20326;-78
2023/08/10 18:55:35;;;;;;;14.80;4.47;;;27.80;58.80;;;;;;6219265;23;20027;-78
2023/08/10 18:58:01;;;;;;;10.25;4.28;;;27.80;58.90;;;;;;6245673;23;20005;-77
2023/08/10 19:00:27;;;;;;;11.43;5.05;;;27.80;59.10;;;;;;6219086;23;20405;-78
2023/08/10 19:02:53;;;;;;;6.10;2.95;;;27.70;59.50;;;;;;6245224;23;20054;-80
2023/08/10 19:05:19;;;;;;;8.23;3.08;;;27.70;60.00;;;;;;6246169;23;20460;-79
2023/08/10 19:07:46;;;;;;;11.50;6.90;;;27.70;60.00;;;;;;6246258;23;20004;-79
2023/08/10 19:10:12;;;;;;;19.65;10.70;;;27.60;60.20;;;;;;6245612;23;20030;-77
2023/08/10 19:12:38;;;;;;;8.60;4.63;;;27.60;60.30;;;;;;6245480;23;20046;-78
2023/08/10 19:15:05;;;;;;;15.35;6.30;;;27.60;60.80;;;;;;6245721;23;20007;-78
2023/08/10 19:17:31;;;;;;;14.80;7.40;;;27.60;61.00;;;;;;6244890;23;20071;-79
2023/08/10 19:19:57;;;;;;;18.70;9.43;;;27.60;61.10;;;;;;6218616;23;20035;-77
2023/08/10 19:22:23;;;;;;;11.43;4.75;;;27.50;61.20;;;;;;6245820;23;20007;-75
2023/08/10 19:24:49;;;;;;;13.65;6.13;;;27.50;61.80;;;;;;6245688;23;20500;-74
2023/08/10 19:27:19;;;;;;;16.95;7.30;;;27.50;62.10;;;;;;6241379;23;20058;-73
2023/08/10 19:29:48;;;;;;;11.80;7.13;;;27.40;62.20;;;;;;6261117;23;20046;-75
2023/08/10 19:32:14;;;;;;;9.93;4.70;;;27.40;62.10;;;;;;6216067;23;20469;-76
2023/08/10 19:34:39;;;;;;;9.07;4.68;;;27.40;62.60;;;;;;6243947;23;20050;-73
2023/08/10 19:37:05;;;;;;;8.60;4.78;;;27.40;62.60;;;;;;6244462;23;20007;-73
2023/08/10 19:39:31;;;;;;;10.63;6.00;;;27.40;62.90;;;;;;6244487;23;20446;-74
2023/08/10 19:41:57;;;;;;;10.88;4.72;;;27.30;63.20;;;;;;6244200;23;20000;-73
2023/08/10 19:44:23;;;;;;;11.10;6.18;;;27.30;63.70;;;;;;6244138;23;20000;-72
2023/08/10 19:46:49;;;;;;;12.20;7.63;;;27.30;63.70;;;;;;6216791;23;20102;-74
2023/08/10 19:49:15;;;;;;;10.57;5.03;;;27.30;63.80;;;;;;6242564;23;20079;-72
2023/08/10 19:51:41;;;;;;;8.93;4.30;;;27.30;63.90;;;;;;6244672;23;20008;-72
2023/08/10 19:54:07;;;;;;;7.32;3.15;;;27.30;64.00;;;;;;6243923;23;20031;-75
2023/08/10 19:56:34;;;;;;;8.98;4.78;;;27.20;64.40;;;;;;6243930;23;20008;-73
2023/08/10 19:59:00;;;;;;;10.25;5.57;;;27.10;64.50;;;;;;6216738;23;20033;-74
2023/08/10 20:01:26;;;;;;;7.47;3.67;;;27.10;64.70;;;;;;6243959;23;20031;-73
2023/08/10 20:03:52;;;;;;;11.55;7.28;;;27.10;64.80;;;;;;6217417;23;20431;-74
2023/08/10 20:06:19;;;;;;;10.75;5.28;;;27.10;65.00;;;;;;6244430;23;20465;-74
2023/08/10 20:08:47;;;;;;;10.05;4.40;;;27.10;65.20;;;;;;6244408;23;20436;-72
2023/08/10 20:11:13;;;;;;;9.55;4.80;;;27.10;65.20;;;;;;6244180;23;20450;-73
2023/08/10 20:13:39;;;;;;;8.88;3.83;;;27.10;65.50;;;;;;6212321;23;20126;-73
2023/08/10 20:16:06;;;;;;;9.77;4.65;;;27.10;65.40;;;;;;6214050;23;20004;-74
2023/08/10 20:18:35;;;;;;;9.38;4.13;;;27.10;65.60;;;;;;6213832;23;20008;-73
2023/08/10 20:21:01;;;;;;;13.45;6.35;;;27.10;65.60;;;;;;6215275;23;20000;-73
2023/08/10 20:23:27;;;;;;;10.00;6.20;;;27.10;65.60;;;;;;6213210;23;20011;-72
2023/08/10 20:25:54;;;;;;;12.65;5.53;;;27.10;65.70;;;;;;6223389;23;19984;-75
2023/08/10 20:28:20;;;;;;;10.80;4.50;;;27.00;65.60;;;;;;6228208;23;20317;-74
2023/08/10 20:30:46;;;;;;;13.95;7.32;;;27.00;65.60;;;;;;6213106;23;20427;-74
2023/08/10 20:33:13;;;;;;;13.73;6.90;;;27.00;65.90;;;;;;6214892;23;20023;-73
2023/08/10 20:35:40;;;;;;;11.90;5.32;;;26.90;65.90;;;;;;6215815;23;20434;-73
2023/08/10 20:38:08;;;;;;;11.23;5.70;;;26.90;65.90;;;;;;6210647;23;20103;-73
2023/08/10 20:40:38;;;;;;;8.93;4.07;;;26.90;66.10;;;;;;6210863;23;20036;-73
2023/08/10 20:43:04;;;;;;;12.75;6.03;;;26.90;66.10;;;;;;6212295;23;20007;-73
2023/08/10 20:45:30;;;;;;;9.10;4.82;;;26.90;66.00;;;;;;6210241;23;20512;-73
2023/08/10 20:47:59;;;;;;;11.45;5.68;;;27.00;65.70;;;;;;6210198;23;20005;-72
2023/08/10 20:50:25;;;;;;;8.40;4.45;;;27.10;65.80;;;;;;6211081;23;20035;-72
2023/08/10 20:52:51;;;;;;;11.80;6.38;;;27.00;65.50;;;;;;6216189;23;20012;-74
2023/08/10 20:55:17;;;;;;;10.48;4.68;;;26.90;65.60;;;;;;6216518;23;20001;-74
2023/08/10 20:57:43;;;;;;;6.68;3.55;;;26.90;65.90;;;;;;6216030;23;20058;-75
2023/08/10 21:00:09;;;;;;;10.75;7.32;;;26.80;65.90;;;;;;6214988;23;20000;-74
2023/08/10 21:02:35;;;;;;;12.77;6.35;;;26.80;65.90;;;;;;6215652;23;20032;-73
2023/08/10 21:05:02;;;;;;;14.23;5.28;;;26.80;66.20;;;;;;6216412;23;20009;-74
2023/08/10 21:07:30;;;;;;;16.88;7.30;;;26.80;66.20;;;;;;6214904;23;20007;-75
2023/08/10 21:09:58;;;;;;;9.35;5.20;;;26.70;66.30;;;;;;6216259;23;20007;-73
2023/08/10 21:12:24;;;;;;;19.75;8.98;;;26.80;66.50;;;;;;6222649;23;20024;-73
2023/08/10 21:14:50;;;;;;;14.05;6.68;;;26.70;66.50;;;;;;6244174;23;20015;-72
2023/08/10 21:17:16;;;;;;;11.07;5.60;;;26.70;66.30;;;;;;6243639;23;20011;-73
2023/08/10 21:19:42;;;;;;;13.20;5.20;;;26.70;66.70;;;;;;6217151;23;20079;-72
2023/08/10 21:22:08;;;;;;;10.77;5.25;;;26.70;66.70;;;;;;6244893;23;20346;-72
2023/08/10 21:24:34;;;;;;;10.45;5.78;;;26.70;66.70;;;;;;6252105;23;20366;-74
2023/08/10 21:27:00;;;;;;;9.30;4.05;;;26.60;66.80;;;;;;6246078;23;20426;-73
2023/08/10 21:29:26;;;;;;;10.45;5.93;;;26.60;66.80;;;;;;6218698;23;20008;-73
2023/08/10 21:31:52;;;;;;;8.65;4.28;;;26.60;67.00;;;;;;6244836;23;20019;-72
2023/08/10 21:34:20;;;;;;;10.25;4.55;;;26.60;67.10;;;;;;6245396;23;20000;-73
2023/08/10 21:36:46;;;;;;;7.28;3.42;;;26.60;67.20;;;;;;6246480;23;20315;-72
2023/08/10 21:39:12;;;;;;;6.85;2.97;;;26.50;67.30;;;;;;6246300;23;20006;-71
2023/08/10 21:41:38;;;;;;;10.55;3.33;;;26.50;67.40;;;;;;6246295;23;20377;-74
2023/08/10 21:44:05;;;;;;;9.35;3.22;;;26.50;67.70;;;;;;6246496;23;20043;-74
2023/08/10 21:46:31;;;;;;;7.97;3.00;;;26.50;67.70;;;;;;6245658;23;20012;-74
2023/08/10 21:48:56;;;;;;;8.35;4.35;;;26.50;67.70;;;;;;6246290;23;20016;-74
2023/08/10 21:51:22;;;;;;;8.05;3.72;;;26.50;67.60;;;;;;6245951;23;20015;-73
2023/08/10 21:53:49;;;;;;;10.02;3.55;;;26.50;67.90;;;;;;6246810;23;20085;-74
2023/08/10 21:56:15;;;;;;;7.80;3.22;;;26.50;67.60;;;;;;6246653;23;20322;-73
2023/08/10 21:58:41;;;;;;;9.82;3.15;;;26.50;68.00;;;;;;6246509;23;20023;-75
2023/08/10 22:01:10;;;;;;;8.35;3.00;;;26.50;67.90;;;;;;6219085;23;20091;-74
2023/08/10 22:03:38;;;;;;;7.97;3.53;;;26.50;67.50;;;;;;6245385;23;19996;-75
2023/08/10 22:06:04;;;;;;;6.28;3.25;;;26.40;68.10;;;;;;6244115;23;20031;-75
2023/08/10 22:08:30;;;;;;;7.38;2.88;;;26.40;67.90;;;;;;6217828;23;20005;-74
2023/08/10 22:10:58;;;;;;;8.30;3.30;;;26.40;68.20;;;;;;6245708;23;20016;-74
2023/08/10 22:13:25;;;;;;;8.82;3.40;;;26.40;68.30;;;;;;6246295;23;20022;-74
2023/08/10 22:15:51;;;;;;;8.07;3.13;;;26.30;68.30;;;;;;6219552;23;20086;-75
2023/08/10 22:18:18;;;;;;;6.63;2.78;;;26.30;68.30;;;;;;6248364;23;20028;-75
2023/08/10 22:20:45;;;;;;;8.13;3.38;;;26.30;68.30;;;;;;6266040;23;20018;-76
2023/08/10 22:23:12;;;;;;;9.20;3.42;;;26.30;68.70;;;;;;6248838;23;20000;-74
2023/08/10 22:25:38;;;;;;;8.80;3.72;;;26.30;69.00;;;;;;6246793;23;20425;-75
2023/08/10 22:28:07;;;;;;;5.60;2.53;;;26.30;68.60;;;;;;6220015;23;20091;-75
2023/08/10 22:30:37;;;;;;;10.57;2.92;;;26.30;68.40;;;;;;6246723;23;20043;-74
2023/08/10 22:33:04;;;;;;;6.50;2.72;;;26.30;68.90;;;;;;6246319;23;19996;-74
2023/08/10 22:35:30;;;;;;;6.38;2.70;;;26.30;68.40;;;;;;6246275;23;20377;-76
2023/08/10 22:37:56;;;;;;;8.77;3.20;;;26.30;69.00;;;;;;6246495;23;20493;-72
2023/08/10 22:40:23;;;;;;;9.88;3.13;;;26.20;68.70;;;;;;6219136;23;20012;-74
2023/08/10 22:42:49;;;;;;;7.68;3.17;;;26.20;69.10;;;;;;6246385;23;20430;-75
2023/08/10 22:45:15;;;;;;;7.40;2.63;;;26.10;69.30;;;;;;6218999;23;20054;-75
2023/08/10 22:47:41;;;;;;;10.88;3.42;;;26.10;69.30;;;;;;6246413;23;20000;-74